Time;durP1;ratioP1;P1;durP2;ratioP2;P2;SDS_P1;SDS_P2;PMS_P1;PMS_P2;Temp;Humidity;BMP_temperature;BMP_pressure;BME280_temperature;BME280_humidity;BME280_pressure;Samples;Min_cycle;Max_cycle;Signal;HPM_P1;HPM_P2
2024/01/21 07:07:40;;;;;;;;;13.75;12.75;;;;;2.54;100.00;102047.84;5212594;22;48276;-73
2024/01/21 07:10:06;;;;;;;;;14.50;11.50;;;;;2.56;100.00;102056.72;4964467;28;45480;-76
2024/01/21 07:12:31;;;;;;;;;15.50;14.00;;;;;2.53;100.00;102055.56;4975736;28;45702;-76
2024/01/21 07:14:57;;;;;;;;;9.75;9.75;;;;;2.31;100.00;102014.78;4978963;28;54793;-75
2024/01/21 07:17:22;;;;;;;;;16.25;13.00;;;;;2.54;100.00;102044.34;4978546;28;55477;-75
2024/01/21 07:19:52;;;;;;;;;18.00;14.25;;;;;2.41;100.00;102017.31;4979882;28;45291;-76
2024/01/21 07:22:18;;;;;;;;;15.50;13.25;;;;;2.47;100.00;102029.91;4977405;28;45138;-74
2024/01/21 07:24:43;;;;;;;;;15.75;11.00;;;;;2.28;100.00;101996.28;4976902;28;46664;-76
2024/01/21 07:27:09;;;;;;;;;16.50;14.25;;;;;2.28;100.00;102005.81;4978839;28;45371;-77
2024/01/21 07:29:34;;;;;;;;;18.25;13.75;;;;;2.59;100.00;102063.88;4979784;28;45409;-76
2024/01/21 07:31:59;;;;;;;;;21.00;14.75;;;;;2.21;100.00;101997.53;4978616;28;55316;-76
2024/01/21 07:34:24;;;;;;;;;15.25;13.50;;;;;2.65;100.00;102053.88;4978213;28;47360;-76
2024/01/21 07:36:50;;;;;;;;;17.00;15.00;;;;;2.36;100.00;101989.03;4972194;28;45331;-74
2024/01/21 07:39:15;;;;;;;;;16.50;14.00;;;;;2.33;100.00;102000.16;4979247;28;54555;-75
2024/01/21 07:41:41;;;;;;;;;18.25;14.50;;;;;2.63;100.00;102063.28;4978616;28;45362;-75
2024/01/21 07:44:06;;;;;;;;;15.75;13.25;;;;;2.73;100.00;102080.59;4979543;28;45394;-75
2024/01/21 07:46:31;;;;;;;;;18.25;14.50;;;;;2.61;100.00;102065.81;4976883;28;51603;-76
2024/01/21 07:48:57;;;;;;;;;15.25;14.50;;;;;2.69;100.00;102085.56;4976603;28;45429;-76
2024/01/21 07:51:22;;;;;;;;;18.75;17.75;;;;;2.54;100.00;102053.06;4964765;28;45245;-76
2024/01/21 07:53:47;;;;;;;;;17.75;15.25;;;;;2.66;100.00;102089.63;4977100;28;45652;-76
2024/01/21 07:56:13;;;;;;;;;18.00;15.00;;;;;2.75;100.00;102103.41;4975082;28;58636;-77
2024/01/21 07:58:38;;;;;;;;;23.50;15.75;;;;;2.64;100.00;102094.75;4975745;28;45533;-77
2024/01/21 08:01:10;;;;;;;;;18.50;14.00;;;;;2.71;100.00;102101.34;4975820;28;45479;-77
2024/01/21 08:03:35;;;;;;;;;14.75;14.00;;;;;2.70;100.00;102089.09;4976995;28;45573;-77
2024/01/21 08:06:00;;;;;;;;;14.75;13.75;;;;;2.66;100.00;102074.91;4973215;28;45394;-76
2024/01/21 08:08:25;;;;;;;;;18.00;14.50;;;;;2.75;100.00;102089.47;4994133;28;45388;-76
2024/01/21 08:10:51;;;;;;;;;10.25;10.25;;;;;2.76;100.00;102079.09;4998103;28;44865;-76
2024/01/21 08:13:16;;;;;;;;;20.00;14.50;;;;;2.84;100.00;102103.19;4977218;28;45591;-76
2024/01/21 08:15:42;;;;;;;;;22.50;14.00;;;;;2.92;100.00;102107.31;5005564;28;45400;-76
2024/01/21 08:18:07;;;;;;;;;15.00;13.50;;;;;2.66;100.00;102058.31;4992659;28;45381;-76
2024/01/21 08:20:33;;;;;;;;;15.75;15.25;;;;;2.62;100.00;102049.34;4980883;28;45362;-76
2024/01/21 08:23:00;;;;;;;;;11.50;10.25;;;;;2.97;100.00;102126.84;4997377;28;45443;-76
2024/01/21 08:25:25;;;;;;;;;16.75;15.25;;;;;3.01;100.00;102123.66;5001725;28;45233;-76
2024/01/21 08:27:51;;;;;;;;;14.25;10.00;;;;;3.04;100.00;102130.84;5001068;28;45690;-76
2024/01/21 08:30:16;;;;;;;;;16.75;11.75;;;;;2.73;100.00;102093.63;4983465;28;46103;-76
2024/01/21 08:32:42;;;;;;;;;18.00;14.50;;;;;2.90;100.00;102135.00;4999727;28;46523;-76
2024/01/21 08:35:08;;;;;;;;;21.00;14.75;;;;;2.81;100.00;102122.16;5000470;28;45438;-76
2024/01/21 08:37:33;;;;;;;;;19.25;16.00;;;;;3.00;100.00;102157.53;4982911;28;45515;-76
2024/01/21 08:39:58;;;;;;;;;21.75;15.75;;;;;2.66;100.00;102106.22;4999845;28;45341;-77
2024/01/21 08:42:24;;;;;;;;;17.00;13.50;;;;;3.14;100.00;102203.91;5000745;28;45426;-76
2024/01/21 08:44:50;;;;;;;;;23.50;14.50;;;;;3.08;100.00;102199.13;5001079;28;45388;-76
2024/01/21 08:47:15;;;;;;;;;14.75;13.50;;;;;3.08;100.00;102204.34;5001003;28;45459;-76
2024/01/21 08:49:40;;;;;;;;;20.50;16.25;;;;;2.95;100.00;102178.06;5001087;28;55495;-76
2024/01/21 08:52:06;;;;;;;;;9.00;7.00;;;;;2.89;100.00;102162.81;4995150;28;57457;-77
2024/01/21 08:54:31;;;;;;;;;20.50;14.25;;;;;3.01;100.00;102178.53;4997958;28;44877;-77
2024/01/21 08:56:57;;;;;;;;;15.50;14.00;;;;;3.08;100.00;102172.03;5000697;28;45350;-77
2024/01/21 08:59:22;;;;;;;;;21.50;17.25;;;;;2.95;100.00;102154.53;5001414;28;45502;-77
2024/01/21 09:01:49;;;;;;;;;13.75;13.75;;;;;2.74;100.00;102113.72;5000301;28;45264;-77
2024/01/21 09:04:15;;;;;;;;;20.50;14.50;;;;;3.23;100.00;102198.47;4996969;28;45393;-77
2024/01/21 09:06:41;;;;;;;;;20.75;15.00;;;;;3.08;100.00;102162.53;4998539;28;45532;-77
2024/01/21 09:09:11;;;;;;;;;19.50;15.25;;;;;3.11;100.00;102156.63;5001458;28;45345;-77
2024/01/21 09:11:37;;;;;;;;;16.25;14.00;;;;;3.14;100.00;102167.31;4999081;28;45568;-76
2024/01/21 09:14:02;;;;;;;;;18.50;14.00;;;;;2.97;100.00;102126.84;4993462;28;45312;-76
2024/01/21 09:16:29;;;;;;;;;12.50;12.50;;;;;3.28;100.00;102181.44;5003833;28;45372;-76
2024/01/21 09:18:55;;;;;;;;;19.00;17.00;;;;;3.38;100.00;102199.59;4993842;28;45495;-76
2024/01/21 09:21:20;;;;;;;;;18.75;14.00;;;;;3.42;100.00;102209.53;4999718;28;45348;-75
2024/01/21 09:23:45;;;;;;;;;18.00;15.00;;;;;3.18;100.00;102148.47;4992918;28;45230;-77
2024/01/21 09:26:11;;;;;;;;;23.25;19.25;;;;;3.20;100.00;102145.97;5001099;28;45569;-77
2024/01/21 09:28:36;;;;;;;;;18.50;16.50;;;;;3.04;100.00;102105.63;4991917;28;45538;-78
2024/01/21 09:31:02;;;;;;;;;18.50;15.75;;;;;3.50;100.00;102179.66;4997801;28;45342;-75
2024/01/21 09:33:27;;;;;;;;;15.50;13.25;;;;;3.21;100.00;102114.72;4993914;28;45321;-74
2024/01/21 09:35:53;;;;;;;;;18.25;14.75;;;;;3.43;100.00;102124.16;4998137;28;45247;-75
2024/01/21 09:38:21;;;;;;;;;17.50;11.25;;;;;3.52;100.00;102135.28;4994398;28;46182;-74
2024/01/21 09:40:55;;;;;;;;;13.00;11.00;;;;;3.70;100.00;102169.75;4997537;28;45645;-74
2024/01/21 09:43:22;;;;;;;;;15.25;14.75;;;;;3.75;100.00;102174.53;4994397;28;45304;-74
2024/01/21 09:45:48;;;;;;;;;18.00;15.25;;;;;3.29;100.00;102100.53;4981562;28;45439;-76
2024/01/21 09:48:15;;;;;;;;;17.00;14.75;;;;;3.77;100.00;102175.53;4998841;28;45944;-76
2024/01/21 09:50:42;;;;;;;;;15.50;13.75;;;;;3.69;100.00;102157.47;5000157;28;45265;-76
2024/01/21 09:53:07;;;;;;;;;15.00;13.75;;;;;3.77;100.00;102166.78;4995853;28;45278;-76
2024/01/21 09:55:33;;;;;;;;;22.00;15.50;;;;;3.85;100.00;102176.09;5001124;28;44750;-76
2024/01/21 09:58:06;;;;;;;;;16.75;13.25;;;;;3.75;100.00;102153.63;4997010;28;45738;-76
2024/01/21 10:00:31;;;;;;;;;13.00;11.50;;;;;3.82;100.00;102165.41;4981405;28;48073;-77
2024/01/21 10:02:57;;;;;;;;;19.50;17.75;;;;;3.98;100.00;102202.38;4996894;28;45277;-79
2024/01/21 10:05:22;;;;;;;;;20.25;18.25;;;;;4.03;100.00;102218.38;5000211;28;45274;-78
2024/01/21 10:07:48;;;;;;;;;16.50;14.50;;;;;3.82;100.00;102188.97;4998798;28;45382;-78
2024/01/21 10:10:15;;;;;;;;;22.75;17.75;;;;;3.91;100.00;102202.69;4999346;28;45472;-79
2024/01/21 10:12:42;;;;;;;;;18.25;18.00;;;;;4.10;100.00;102225.91;4981641;28;45687;-80
2024/01/21 10:15:07;;;;;;;;;16.00;14.50;;;;;3.09;100.00;102064.19;4980572;28;45344;-79
2024/01/21 10:17:34;;;;;;;;;24.50;16.50;;;;;4.08;100.00;102213.50;4997012;28;45325;-80
2024/01/21 10:20:00;;;;;;;;;22.50;16.00;;;;;4.10;100.00;102210.19;4999790;28;45563;-78
2024/01/21 10:22:25;;;;;;;;;17.25;16.75;;;;;4.14;100.00;102200.84;4991760;28;45432;-78
2024/01/21 10:24:50;;;;;;;;;18.25;17.50;;;;;4.08;100.00;102171.63;4999578;28;45246;-79
2024/01/21 10:27:16;;;;;;;;;22.00;19.25;;;;;4.23;100.00;102186.75;4978110;28;49554;-78
2024/01/21 10:29:44;;;;;;;;;19.00;16.50;;;;;4.09;100.00;102153.44;4994798;28;47419;-79
2024/01/21 10:32:11;;;;;;;;;16.25;12.75;;;;;4.30;100.00;102180.25;4989383;28;45520;-78
2024/01/21 10:34:40;;;;;;;;;18.50;14.75;;;;;4.14;100.00;102133.72;4981451;28;45375;-77
2024/01/21 10:37:07;;;;;;;;;17.25;11.25;;;;;4.23;100.00;102136.13;4998804;28;45290;-79
2024/01/21 10:39:35;;;;;;;;;18.25;16.00;;;;;4.27;100.00;102125.06;4991215;28;45623;-78
2024/01/21 10:42:00;;;;;;;;;8.75;8.00;;;;;4.19;100.00;102092.19;4997998;28;45432;-78
2024/01/21 10:44:29;;;;;;;;;13.25;12.00;;;;;4.40;100.00;102112.03;4992869;28;44727;-78
2024/01/21 10:46:58;;;;;;;;;11.00;11.00;;;;;4.43;100.00;102108.72;4999192;28;45625;-78
2024/01/21 10:49:23;;;;;;;;;15.00;11.50;;;;;4.66;100.00;102133.91;4993618;28;45683;-78
2024/01/21 10:51:53;;;;;;;;;17.00;15.50;;;;;4.76;100.00;102146.84;4998716;28;45458;-78
2024/01/21 10:54:19;;;;;;;;;16.00;11.25;;;;;4.70;100.00;102113.28;4995465;28;44636;-76
2024/01/21 10:56:47;;;;;;;;;12.00;11.00;;;;;4.75;100.00;102113.56;4998681;28;45378;-76
2024/01/21 10:59:13;;;;;;;;;14.25;12.50;;;;;4.96;100.00;102149.91;4996040;28;46369;-76
2024/01/21 11:01:43;;;;;;;;;15.75;12.00;;;;;4.89;100.00;102112.81;4998781;28;45557;-76
2024/01/21 11:04:12;;;;;;;;;10.00;8.00;;;;;5.01;100.00;102128.44;4997100;28;45285;-76
2024/01/21 11:06:41;;;;;;;;;15.50;13.25;;;;;5.19;100.00;102139.28;4979861;28;45575;-76
2024/01/21 11:09:08;;;;;;;;;11.25;10.50;;;;;5.14;100.00;102122.34;4999343;28;45698;-76
2024/01/21 11:11:46;;;;;;;;;19.00;13.00;;;;;4.90;100.00;102066.53;4980300;28;45425;-77
2024/01/21 11:14:30;;;;;;;;;14.75;13.00;;;;;5.46;100.00;102157.66;4989695;28;45273;-76
2024/01/21 11:16:57;;;;;;;;;18.00;15.50;;;;;5.37;100.00;102129.09;4999124;28;45448;-76
2024/01/21 11:19:24;;;;;;;;;13.00;11.25;;;;;5.50;100.00;102138.72;4999153;28;45436;-76
2024/01/21 11:21:55;;;;;;;;;13.75;13.75;;;;;5.51;100.00;102128.31;4995880;28;45432;-76
2024/01/21 11:24:29;;;;;;;;;15.00;12.25;;;;;5.61;100.00;102145.56;4995367;28;45568;-76
2024/01/21 11:26:55;;;;;;;;;20.00;14.00;;;;;5.67;100.00;102152.94;4998847;28;44794;-75
2024/01/21 11:29:25;;;;;;;;;18.25;12.50;;;;;5.83;100.00;102164.53;4980556;28;47397;-76
2024/01/21 11:32:05;;;;;;;;;24.50;16.75;;;;;5.78;100.00;102141.44;4998532;28;45447;-75
2024/01/21 11:34:38;;;;;;;;;14.00;13.75;;;;;5.98;100.00;102158.50;4997336;28;45286;-77
2024/01/21 11:37:04;;;;;;;;;19.50;12.00;;;;;5.83;100.00;102125.19;4993615;28;45423;-76
2024/01/21 11:39:29;;;;;;;;;16.50;14.00;;;;;6.08;100.00;102145.16;4990428;28;45580;-74
2024/01/21 11:41:55;;;;;;;;;19.00;12.25;;;;;6.00;100.00;102118.44;4980010;28;46589;-74
2024/01/21 11:44:23;;;;;;;;;8.75;7.00;;;;;6.01;100.00;102116.69;4988818;28;45182;-74
2024/01/21 11:46:49;;;;;;;;;16.25;14.25;;;;;6.01;100.00;102095.69;5000778;28;45427;-74
2024/01/21 11:49:15;;;;;;;;;12.25;9.50;;;;;6.11;100.00;102116.50;4993100;28;45388;-74
2024/01/21 11:51:41;;;;;;;;;19.75;15.50;;;;;6.25;100.00;102138.38;4980303;28;45685;-78
2024/01/21 11:54:07;;;;;;;;;9.75;9.75;;;;;6.39;100.00;102150.66;4997815;28;45306;-77
2024/01/21 11:56:34;;;;;;;;;18.00;12.50;;;;;6.37;100.00;102139.13;4993701;28;46547;-77
2024/01/21 11:59:00;;;;;;;;;22.25;17.25;;;;;6.43;100.00;102141.22;4997133;28;45623;-77
2024/01/21 12:01:30;;;;;;;;;19.75;14.50;;;;;6.40;100.00;102134.06;4977434;28;45344;-76
2024/01/21 12:03:56;;;;;;;;;19.25;17.00;;;;;6.48;100.00;102150.31;4998758;28;45462;-75
2024/01/21 12:06:23;;;;;;;;;17.50;13.75;;;;;6.60;100.00;102172.06;5000669;28;45640;-73
2024/01/21 12:08:48;;;;;;;;;20.50;14.75;;;;;6.52;100.00;102162.81;5001361;28;45718;-74
2024/01/21 12:11:16;;;;;;;;;19.75;19.75;;;;;6.44;100.00;102129.91;4981305;28;45402;-74
2024/01/21 12:13:43;;;;;;;;;19.00;13.50;;;;;6.67;100.00;102158.53;4992922;28;45211;-73
2024/01/21 12:16:09;;;;;;;;;21.75;15.50;;;;;6.70;100.00;102166.59;5001869;28;45311;-74
2024/01/21 12:18:44;;;;;;;;;18.75;17.00;;;;;6.51;100.00;102147.88;4993494;28;45431;-75
2024/01/21 12:21:13;;;;;;;;;17.75;13.25;;;;;6.63;100.00;102164.38;5000583;28;45425;-74
2024/01/21 12:23:43;;;;;;;;;16.25;13.25;;;;;6.76;100.00;102181.84;4994680;28;45310;-74
2024/01/21 12:26:14;;;;;;;;;17.50;17.00;;;;;6.76;100.00;102192.34;4999674;28;45814;-75
2024/01/21 12:28:52;;;;;;;;;12.25;9.25;;;;;6.61;100.00;102171.28;4995996;28;45536;-74
2024/01/21 12:31:18;;;;;;;;;14.00;13.00;;;;;6.67;100.00;102157.63;4999218;28;45369;-75
2024/01/21 12:33:43;;;;;;;;;18.25;15.75;;;;;6.68;100.00;102149.81;4999633;28;45455;-75
2024/01/21 12:36:09;;;;;;;;;26.50;22.50;;;;;6.80;100.00;102162.78;4988119;28;45649;-74
2024/01/21 12:38:35;;;;;;;;;20.00;19.00;;;;;6.76;100.00;102144.16;4996494;28;46858;-77
2024/01/21 12:41:01;;;;;;;;;20.00;16.50;;;;;6.83;100.00;102165.59;4998792;28;45313;-78
2024/01/21 12:43:26;;;;;;;;;27.75;25.25;;;;;6.68;100.00;102136.69;4983588;28;45442;-75
2024/01/21 12:45:51;;;;;;;;;16.00;14.00;;;;;6.76;100.00;102150.28;5013403;28;50425;-75
2024/01/21 12:48:17;;;;;;;;;18.00;15.00;;;;;6.74;100.00;102138.78;4995846;28;46649;-74
2024/01/21 12:50:43;;;;;;;;;20.50;19.25;;;;;6.61;100.00;102112.56;4998106;28;45330;-74
2024/01/21 12:53:09;;;;;;;;;15.00;14.00;;;;;6.86;100.00;102154.38;4983896;28;45442;-75
2024/01/21 12:55:34;;;;;;;;;22.25;19.50;;;;;6.82;100.00;102132.28;5001056;28;45290;-73
2024/01/21 12:57:59;;;;;;;;;22.75;16.25;;;;;6.79;100.00;102118.94;5000295;28;45249;-73
2024/01/21 13:00:25;;;;;;;;;8.25;6.75;;;;;6.80;100.00;102123.38;4982684;28;51315;-74
2024/01/21 13:02:51;;;;;;;;;21.50;15.25;;;;;6.79;100.00;102116.31;4998894;28;45323;-73
2024/01/21 13:05:16;;;;;;;;;1.00;1.00;;;;;6.87;100.00;102128.22;4997803;28;45471;-73
2024/01/21 13:07:41;;;;;;;;;25.50;21.25;;;;;6.86;100.00;102121.16;4979880;28;58985;-73
2024/01/21 13:10:07;;;;;;;;;14.00;9.50;;;;;6.99;100.00;102135.03;4999959;28;45226;-73
2024/01/21 13:12:32;;;;;;;;;17.75;15.75;;;;;6.86;100.00;102109.69;4991876;28;45273;-74
2024/01/21 13:14:57;;;;;;;;;18.50;16.25;;;;;6.98;100.00;102136.75;4993458;28;54458;-73
2024/01/21 13:17:23;;;;;;;;;16.50;14.75;;;;;6.71;100.00;102078.16;4995912;28;45511;-72
2024/01/21 13:19:48;;;;;;;;;15.25;12.75;;;;;6.89;100.00;102115.13;4996864;28;45294;-72
2024/01/21 13:22:13;;;;;;;;;19.25;15.25;;;;;6.74;100.00;102094.09;4999047;28;45244;-72
2024/01/21 13:24:39;;;;;;;;;19.75;17.25;;;;;6.87;100.00;102122.06;4999513;28;45707;-72
2024/01/21 13:27:09;;;;;;;;;16.75;14.50;;;;;6.73;100.00;102105.44;4999712;28;51797;-72
2024/01/21 13:32:20;;;;;;;;;14.75;14.75;;;;;6.90;100.00;102135.38;4994697;28;44829;-73
2024/01/21 13:34:46;;;;;;;;;19.00;19.00;;;;;6.88;100.00;102119.50;4990974;28;45345;-72
2024/01/21 13:37:12;;;;;;;;;19.25;15.25;;;;;6.78;100.00;102101.38;4996903;28;45400;-73
2024/01/21 13:39:39;;;;;;;;;12.75;12.75;;;;;6.93;100.00;102122.41;4991652;28;44812;-73
2024/01/21 13:42:06;;;;;;;;;16.75;16.75;;;;;6.67;100.00;102076.19;4993551;28;45452;-73
2024/01/21 13:44:31;;;;;;;;;16.75;16.75;;;;;6.81;100.00;102106.81;4993757;28;45630;-73
2024/01/21 13:46:57;;;;;;;;;15.25;15.00;;;;;6.81;100.00;102106.81;4998188;28;45921;-73
2024/01/21 13:49:23;;;;;;;;;15.50;13.75;;;;;6.84;100.00;102091.22;4997650;28;45651;-73
2024/01/21 13:51:48;;;;;;;;;19.50;17.50;;;;;6.83;100.00;102088.50;4998137;28;45230;-72
2024/01/21 13:54:14;;;;;;;;;19.00;17.00;;;;;6.93;100.00;102094.41;4996302;28;45450;-72
2024/01/21 13:56:39;;;;;;;;;8.25;8.00;;;;;7.01;100.00;102108.00;4998986;28;46418;-72
2024/01/21 13:59:04;;;;;;;;;19.25;18.25;;;;;6.88;100.00;102076.53;4979409;28;45318;-72
2024/01/21 14:01:30;;;;;;;;;20.25;15.25;;;;;6.86;100.00;102062.38;4998640;28;45439;-71
2024/01/21 14:03:55;;;;;;;;;14.75;12.50;;;;;7.02;100.00;102082.63;4998150;28;54501;-71
2024/01/21 14:06:21;;;;;;;;;19.75;17.00;;;;;7.00;100.00;102068.47;4996074;28;45562;-73
2024/01/21 14:08:46;;;;;;;;;20.00;17.25;;;;;6.91;100.00;102061.84;4997238;28;45269;-74
2024/01/21 14:11:12;;;;;;;;;23.00;19.00;;;;;6.84;100.00;102043.94;4998306;28;45322;-73
2024/01/21 14:13:38;;;;;;;;;17.75;13.00;;;;;7.00;100.00;102064.16;4998135;28;45508;-72
2024/01/21 14:16:04;;;;;;;;;15.00;14.75;;;;;6.99;100.00;102066.66;5000911;28;45405;-72
2024/01/21 14:18:29;;;;;;;;;29.50;23.00;;;;;7.01;100.00;102073.84;4992652;28;45397;-72
2024/01/21 14:20:54;;;;;;;;;29.25;22.75;;;;;7.09;100.00;102077.81;4979900;28;45362;-73
2024/01/21 14:23:20;;;;;;;;;26.50;19.25;;;;;7.07;100.00;102078.56;4998220;28;45532;-72
2024/01/21 14:25:47;;;;;;;;;21.75;19.25;;;;;7.04;100.00;102067.84;4980512;28;46808;-73
2024/01/21 14:28:14;;;;;;;;;23.00;21.50;;;;;7.17;100.00;102083.53;4995252;28;45290;-73
2024/01/21 14:30:40;;;;;;;;;22.00;19.00;;;;;7.19;100.00;102076.63;4998164;28;44739;-73
2024/01/21 14:33:05;;;;;;;;;24.50;20.25;;;;;6.76;100.00;101984.75;4997986;28;51661;-73
2024/01/21 14:35:31;;;;;;;;;21.50;19.25;;;;;7.04;100.00;102025.78;4998085;28;45337;-72
2024/01/21 14:37:57;;;;;;;;;16.75;15.00;;;;;6.99;100.00;102008.84;4995086;28;45420;-73
2024/01/21 14:40:25;;;;;;;;;20.00;15.75;;;;;7.16;100.00;102040.53;4996552;28;45409;-73
2024/01/21 14:42:51;;;;;;;;;24.75;21.25;;;;;7.15;100.00;102033.47;4995980;28;45444;-73
2024/01/21 14:45:16;;;;;;;;;20.50;18.00;;;;;7.04;100.00;102018.81;4996471;28;46704;-73
2024/01/21 14:47:41;;;;;;;;;21.50;19.25;;;;;7.09;100.00;102041.00;4997169;28;45420;-72
2024/01/21 14:50:08;;;;;;;;;18.00;13.75;;;;;7.16;100.00;102045.78;4991948;28;45255;-73
2024/01/21 14:52:34;;;;;;;;;18.75;16.50;;;;;6.86;100.00;101989.75;4997713;28;45321;-73
2024/01/21 14:54:59;;;;;;;;;19.50;17.75;;;;;7.17;100.00;102029.22;4992369;28;46715;-73
2024/01/21 14:57:25;;;;;;;;;19.75;17.50;;;;;7.15;100.00;102043.09;4998383;28;45299;-73
2024/01/21 14:59:50;;;;;;;;;22.00;17.00;;;;;7.20;100.00;102053.84;4977236;28;45606;-73
2024/01/21 15:02:16;;;;;;;;;23.50;15.50;;;;;7.05;100.00;102022.34;4998468;28;45231;-73
2024/01/21 15:04:41;;;;;;;;;21.25;18.50;;;;;6.89;100.00;101996.88;4996050;28;45501;-71
2024/01/21 15:07:07;;;;;;;;;16.00;14.75;;;;;7.07;100.00;102024.25;4998009;28;45394;-71
2024/01/21 15:09:33;;;;;;;;;23.25;18.25;;;;;7.04;100.00;102025.78;4999080;28;45309;-72
2024/01/21 15:11:58;;;;;;;;;19.75;16.00;;;;;6.96;100.00;101996.41;4997131;28;45372;-72
2024/01/21 15:14:34;;;;;;;;;23.50;17.50;;;;;7.14;100.00;102041.25;5000540;28;45289;-72
2024/01/21 15:16:59;;;;;;;;;25.25;22.75;;;;;7.13;100.00;102044.72;4990960;28;45456;-72
2024/01/21 15:19:24;;;;;;;;;14.75;12.75;;;;;7.12;100.00;102037.66;4993213;28;58433;-72
2024/01/21 15:21:50;;;;;;;;;20.75;17.50;;;;;6.89;100.00;101995.16;4993430;28;45424;-72
2024/01/21 15:24:15;;;;;;;;;14.50;13.25;;;;;7.13;100.00;102035.09;4970254;28;46093;-72
2024/01/21 15:26:40;;;;;;;;;14.50;11.25;;;;;7.05;100.00;102027.59;4978717;28;51080;-72
2024/01/21 15:29:06;;;;;;;;;20.00;15.50;;;;;7.10;100.00;102034.03;4992386;28;45334;-73
2024/01/21 15:31:31;;;;;;;;;17.25;15.25;;;;;7.16;100.00;102037.00;4997334;28;49750;-73
2024/01/21 15:33:57;;;;;;;;;20.00;15.50;;;;;7.04;100.00;102000.41;4989855;28;46292;-73
2024/01/21 15:36:25;;;;;;;;;18.00;14.00;;;;;7.11;100.00;102018.34;4979573;28;44863;-73
2024/01/21 15:38:50;;;;;;;;;20.75;17.50;;;;;7.17;100.00;102013.44;4991321;28;45412;-73
2024/01/21 15:41:15;;;;;;;;;23.75;15.75;;;;;7.05;100.00;101985.53;4998384;28;45199;-73
2024/01/21 15:43:41;;;;;;;;;20.00;16.75;;;;;6.90;100.00;101970.69;4991998;28;45454;-73
2024/01/21 15:46:06;;;;;;;;;20.00;18.00;;;;;7.14;100.00;102025.50;4979618;28;45351;-73
2024/01/21 15:48:31;;;;;;;;;20.75;19.75;;;;;7.06;100.00;102011.91;4992992;28;45207;-73
2024/01/21 15:50:58;;;;;;;;;21.50;17.25;;;;;7.08;100.00;102023.41;4979926;28;55205;-73
2024/01/21 15:53:25;;;;;;;;;20.00;18.25;;;;;6.93;100.00;102005.03;4994312;28;46395;-74
2024/01/21 15:55:50;;;;;;;;;16.00;12.50;;;;;7.02;100.00;102036.19;4997268;28;45308;-73
2024/01/21 15:58:16;;;;;;;;;18.00;14.50;;;;;7.06;100.00;102024.16;4977406;28;45350;-73
2024/01/21 16:00:41;;;;;;;;;20.00;18.75;;;;;6.87;100.00;101985.38;4998183;28;45309;-74
2024/01/21 16:03:06;;;;;;;;;28.50;25.50;;;;;6.91;100.00;101997.88;4989757;28;50538;-73
2024/01/21 16:05:32;;;;;;;;;19.50;17.25;;;;;7.00;100.00;102008.00;4998641;28;45320;-73
2024/01/21 16:07:57;;;;;;;;;18.25;17.00;;;;;6.85;100.00;101989.63;4997759;28;45407;-73
2024/01/21 16:10:22;;;;;;;;;18.50;15.50;;;;;6.99;100.00;102000.94;4998713;28;45308;-72
2024/01/21 16:12:49;;;;;;;;;22.00;15.75;;;;;7.01;100.00;102020.34;4989047;28;59111;-73
2024/01/21 16:15:14;;;;;;;;;17.75;16.00;;;;;6.66;100.00;101956.09;4999218;28;45297;-74
2024/01/21 16:17:44;;;;;;;;;19.75;18.25;;;;;7.07;100.00;102036.47;4990540;28;45393;-74
2024/01/21 16:20:11;;;;;;;;;18.00;14.25;;;;;7.03;100.00;102035.41;4980136;28;46131;-74
2024/01/21 16:22:36;;;;;;;;;18.25;14.00;;;;;7.02;100.00;102040.56;4993133;28;45735;-74
2024/01/21 16:25:03;;;;;;;;;19.75;18.75;;;;;6.95;100.00;102028.78;4998366;28;45248;-74
2024/01/21 16:27:28;;;;;;;;;19.50;16.75;;;;;7.14;100.00;102042.19;4978519;28;45623;-74
2024/01/21 16:29:54;;;;;;;;;19.75;15.25;;;;;6.91;100.00;102003.13;4970692;28;45999;-73
2024/01/21 16:32:19;;;;;;;;;20.00;15.00;;;;;7.16;100.00;102037.91;4993925;28;55768;-74
2024/01/21 16:34:44;;;;;;;;;18.25;15.50;;;;;7.04;100.00;102003.03;4993042;28;44645;-74
2024/01/21 16:37:10;;;;;;;;;15.75;12.75;;;;;7.10;100.00;102013.00;5000943;28;45270;-74
2024/01/21 16:39:35;;;;;;;;;19.50;15.50;;;;;7.14;100.00;101994.88;4994313;28;45154;-74
2024/01/21 16:42:00;;;;;;;;;20.25;18.50;;;;;7.13;100.00;102002.66;5000450;28;56057;-74
2024/01/21 16:44:26;;;;;;;;;25.75;25.00;;;;;7.09;100.00;101990.16;4995284;28;45241;-73
2024/01/21 16:46:51;;;;;;;;;30.00;24.25;;;;;7.18;100.00;101988.06;4998162;28;45363;-74
2024/01/21 16:49:22;;;;;;;;;26.00;22.25;;;;;7.20;100.00;101975.91;4996174;28;45507;-73
2024/01/21 16:51:57;;;;;;;;;22.50;17.25;;;;;7.28;100.00;101979.88;5000698;28;45409;-74
2024/01/21 16:54:22;;;;;;;;;23.00;19.25;;;;;7.38;100.00;101997.97;5001596;28;45427;-74
2024/01/21 16:56:48;;;;;;;;;26.75;22.25;;;;;7.24;100.00;101992.75;4999972;28;55664;-74
2024/01/21 16:59:13;;;;;;;;;20.50;19.00;;;;;7.34;100.00;102017.03;4998317;28;45223;-72
2024/01/21 17:01:44;;;;;;;;;21.00;18.75;;;;;7.31;100.00;102001.09;4982182;28;46885;-73
2024/01/21 17:04:10;;;;;;;;;15.25;14.00;;;;;7.45;100.00;102000.94;4976124;28;45343;-73
2024/01/21 17:06:35;;;;;;;;;14.75;14.50;;;;;7.34;100.00;101971.44;5000028;28;45361;-75
2024/01/21 17:09:01;;;;;;;;;13.75;12.50;;;;;7.40;100.00;101977.03;5001345;28;45331;-73
2024/01/21 17:11:30;;;;;;;;;19.00;15.00;;;;;7.60;100.00;102029.03;5000592;28;45252;-73
2024/01/21 17:13:55;;;;;;;;;20.00;18.25;;;;;7.53;100.00;102007.53;4992785;28;44771;-73
2024/01/21 17:16:20;;;;;;;;;20.25;20.25;;;;;7.62;100.00;102022.13;5001048;28;45949;-73
2024/01/21 17:19:03;;;;;;;;;31.00;27.25;;;;;7.16;100.00;101937.09;4993629;28;44734;-74
2024/01/21 17:21:29;;;;;;;;;22.50;18.00;;;;;7.71;100.00;102023.47;4999942;28;45229;-74
2024/01/21 17:23:54;;;;;;;;;18.25;15.50;;;;;7.55;100.00;101982.22;5001002;28;45436;-74
2024/01/21 17:26:20;;;;;;;;;24.50;22.00;;;;;7.58;100.00;101988.56;5000203;28;45206;-74
2024/01/21 17:28:45;;;;;;;;;17.00;16.25;;;;;7.65;100.00;101986.28;4992239;28;47931;-74
2024/01/21 17:31:11;;;;;;;;;25.00;24.75;;;;;7.61;100.00;101978.19;4999047;28;45243;-74
2024/01/21 17:33:36;;;;;;;;;20.75;19.75;;;;;7.89;100.00;102026.19;4993486;28;45345;-74
2024/01/21 17:36:02;;;;;;;;;24.00;21.25;;;;;7.72;100.00;101993.69;4997307;28;45201;-74
2024/01/21 17:38:27;;;;;;;;;21.00;20.75;;;;;7.83;100.00;102000.44;4994610;28;45271;-74
2024/01/21 17:40:52;;;;;;;;;17.25;13.50;;;;;7.70;100.00;101966.38;4998666;28;46186;-74
2024/01/21 17:43:18;;;;;;;;;19.50;16.25;;;;;8.00;100.00;102007.53;4995489;28;45513;-74
2024/01/21 17:45:43;;;;;;;;;18.50;13.00;;;;;7.79;100.00;101962.53;4980423;28;45394;-73
2024/01/21 17:48:09;;;;;;;;;18.50;14.75;;;;;8.00;100.00;102011.88;4996746;28;45533;-73
2024/01/21 17:50:34;;;;;;;;;19.50;16.00;;;;;7.99;100.00;101997.81;4998369;28;46277;-74
2024/01/21 17:52:59;;;;;;;;;16.00;16.00;;;;;7.97;100.00;101994.19;4997748;28;45942;-74
2024/01/21 17:55:25;;;;;;;;;45.25;34.00;;;;;7.96;100.00;101992.41;4998756;28;45326;-74
2024/01/21 17:57:50;;;;;;;;;14.50;12.25;;;;;8.16;100.00;102016.25;4998252;28;50883;-74
2024/01/21 18:00:16;;;;;;;;;13.25;13.00;;;;;8.14;100.00;102003.00;4998666;28;45458;-74
2024/01/21 18:02:41;;;;;;;;;25.50;22.75;;;;;8.07;100.00;101990.34;4991037;28;45558;-74
2024/01/21 18:05:07;;;;;;;;;17.75;14.00;;;;;8.03;100.00;101980.44;4999596;28;55459;-74
2024/01/21 18:07:32;;;;;;;;;28.50;24.25;;;;;8.23;100.00;102005.22;4999180;28;45498;-74
2024/01/21 18:09:58;;;;;;;;;22.75;19.50;;;;;7.97;100.00;101948.53;4999970;28;45298;-74
2024/01/21 18:12:23;;;;;;;;;21.00;20.50;;;;;7.89;100.00;101924.44;4993119;28;49830;-74
2024/01/21 18:14:48;;;;;;;;;26.25;22.50;;;;;8.24;100.00;101976.34;4998523;28;45365;-74